sensor_id;sensor_type;location;lat;lon;timestamp;P1;durP1;ratioP1;P2;durP2;ratioP2
2173;SDS011;1093;51.424;11.764;2024-02-14T00:01:23;8.50;;;4.97;;
2173;SDS011;1093;51.424;11.764;2024-02-14T00:03:50;7.60;;;5.90;;
2173;SDS011;1093;51.424;11.764;2024-02-14T00:06:17;8.67;;;6.00;;
2173;SDS011;1093;51.424;11.764;2024-02-14T00:08:44;10.93;;;6.90;;
2173;SDS011;1093;51.424;11.764;2024-02-14T00:11:31;7.30;;;6.00;;
2173;SDS011;1093;51.424;11.764;2024-02-14T00:13:58;14.17;;;6.90;;
2173;SDS011;1093;51.424;11.764;2024-02-14T00:16:25;7.53;;;6.10;;
2173;SDS011;1093;51.424;11.764;2024-02-14T00:18:55;11.40;;;6.37;;
2173;SDS011;1093;51.424;11.764;2024-02-14T00:21:21;7.97;;;5.33;;
2173;SDS011;1093;51.424;11.764;2024-02-14T00:23:49;11.60;;;6.20;;
2173;SDS011;1093;51.424;11.764;2024-02-14T00:26:14;8.53;;;5.93;;
2173;SDS011;1093;51.424;11.764;2024-02-14T00:28:43;10.60;;;6.30;;
2173;SDS011;1093;51.424;11.764;2024-02-14T00:31:09;13.60;;;7.00;;
2173;SDS011;1093;51.424;11.764;2024-02-14T00:33:36;13.33;;;7.10;;
2173;SDS011;1093;51.424;11.764;2024-02-14T00:36:03;10.23;;;6.50;;
2173;SDS011;1093;51.424;11.764;2024-02-14T00:41:25;8.47;;;5.90;;
2173;SDS011;1093;51.424;11.764;2024-02-14T00:43:56;6.23;;;5.60;;
2173;SDS011;1093;51.424;11.764;2024-02-14T00:46:22;11.40;;;6.23;;
2173;SDS011;1093;51.424;11.764;2024-02-14T00:48:49;8.13;;;6.83;;
2173;SDS011;1093;51.424;11.764;2024-02-14T00:51:16;8.00;;;6.63;;
2173;SDS011;1093;51.424;11.764;2024-02-14T00:53:43;7.17;;;5.57;;
2173;SDS011;1093;51.424;11.764;2024-02-14T00:56:10;8.13;;;6.00;;
2173;SDS011;1093;51.424;11.764;2024-02-14T00:58:37;6.70;;;5.30;;
2173;SDS011;1093;51.424;11.764;2024-02-14T01:01:05;11.50;;;6.30;;
2173;SDS011;1093;51.424;11.764;2024-02-14T01:03:32;7.03;;;6.17;;
2173;SDS011;1093;51.424;11.764;2024-02-14T01:05:59;11.60;;;6.00;;
2173;SDS011;1093;51.424;11.764;2024-02-14T01:08:25;8.47;;;5.13;;
2173;SDS011;1093;51.424;11.764;2024-02-14T01:10:53;6.07;;;5.23;;
2173;SDS011;1093;51.424;11.764;2024-02-14T01:13:19;6.40;;;5.10;;
2173;SDS011;1093;51.424;11.764;2024-02-14T01:15:47;10.47;;;6.13;;
2173;SDS011;1093;51.424;11.764;2024-02-14T01:18:16;8.33;;;5.60;;
2173;SDS011;1093;51.424;11.764;2024-02-14T01:20:43;7.80;;;5.50;;
2173;SDS011;1093;51.424;11.764;2024-02-14T01:23:16;7.03;;;5.47;;
2173;SDS011;1093;51.424;11.764;2024-02-14T01:25:43;11.10;;;6.03;;
2173;SDS011;1093;51.424;11.764;2024-02-14T01:28:09;8.70;;;5.43;;
2173;SDS011;1093;51.424;11.764;2024-02-14T01:30:36;8.10;;;5.97;;
2173;SDS011;1093;51.424;11.764;2024-02-14T01:33:03;6.97;;;5.23;;
2173;SDS011;1093;51.424;11.764;2024-02-14T01:35:32;8.10;;;5.07;;
2173;SDS011;1093;51.424;11.764;2024-02-14T01:37:58;12.10;;;5.93;;
2173;SDS011;1093;51.424;11.764;2024-02-14T01:40:27;6.33;;;4.87;;
2173;SDS011;1093;51.424;11.764;2024-02-14T01:42:54;11.43;;;6.43;;
2173;SDS011;1093;51.424;11.764;2024-02-14T01:45:21;10.83;;;4.50;;
2173;SDS011;1093;51.424;11.764;2024-02-14T01:47:48;7.17;;;5.13;;
2173;SDS011;1093;51.424;11.764;2024-02-14T01:50:15;8.40;;;5.10;;
2173;SDS011;1093;51.424;11.764;2024-02-14T01:52:45;8.73;;;5.77;;
2173;SDS011;1093;51.424;11.764;2024-02-14T01:55:12;6.80;;;4.33;;
2173;SDS011;1093;51.424;11.764;2024-02-14T01:57:39;7.80;;;5.40;;
2173;SDS011;1093;51.424;11.764;2024-02-14T02:00:06;6.40;;;5.47;;
2173;SDS011;1093;51.424;11.764;2024-02-14T02:02:34;6.90;;;5.10;;
2173;SDS011;1093;51.424;11.764;2024-02-14T02:05:03;8.20;;;5.27;;
2173;SDS011;1093;51.424;11.764;2024-02-14T02:07:30;9.23;;;5.70;;
2173;SDS011;1093;51.424;11.764;2024-02-14T02:10:00;9.53;;;5.60;;
2173;SDS011;1093;51.424;11.764;2024-02-14T02:12:27;6.70;;;5.03;;
2173;SDS011;1093;51.424;11.764;2024-02-14T02:14:53;7.30;;;5.70;;
2173;SDS011;1093;51.424;11.764;2024-02-14T02:17:20;7.20;;;6.03;;
2173;SDS011;1093;51.424;11.764;2024-02-14T02:19:47;6.60;;;5.20;;
2173;SDS011;1093;51.424;11.764;2024-02-14T02:22:14;7.73;;;5.30;;
2173;SDS011;1093;51.424;11.764;2024-02-14T02:24:42;5.63;;;4.87;;
2173;SDS011;1093;51.424;11.764;2024-02-14T02:27:10;4.60;;;3.83;;
2173;SDS011;1093;51.424;11.764;2024-02-14T02:29:38;8.33;;;4.40;;
2173;SDS011;1093;51.424;11.764;2024-02-14T02:32:05;5.40;;;4.00;;
2173;SDS011;1093;51.424;11.764;2024-02-14T02:34:34;9.50;;;4.27;;
2173;SDS011;1093;51.424;11.764;2024-02-14T02:37:04;5.20;;;3.80;;
2173;SDS011;1093;51.424;11.764;2024-02-14T02:39:32;5.90;;;3.97;;
2173;SDS011;1093;51.424;11.764;2024-02-14T02:42:02;6.70;;;4.33;;
2173;SDS011;1093;51.424;11.764;2024-02-14T02:44:29;10.10;;;4.60;;
2173;SDS011;1093;51.424;11.764;2024-02-14T02:46:57;11.53;;;4.47;;
2173;SDS011;1093;51.424;11.764;2024-02-14T02:49:25;4.10;;;3.40;;
2173;SDS011;1093;51.424;11.764;2024-02-14T02:55:16;3.53;;;3.23;;
2173;SDS011;1093;51.424;11.764;2024-02-14T02:57:44;4.47;;;2.87;;
2173;SDS011;1093;51.424;11.764;2024-02-14T03:00:13;6.03;;;3.43;;
2173;SDS011;1093;51.424;11.764;2024-02-14T03:02:41;5.20;;;3.63;;
2173;SDS011;1093;51.424;11.764;2024-02-14T03:05:09;4.10;;;3.10;;
2173;SDS011;1093;51.424;11.764;2024-02-14T03:07:43;3.97;;;3.30;;
2173;SDS011;1093;51.424;11.764;2024-02-14T03:10:12;6.30;;;3.43;;
2173;SDS011;1093;51.424;11.764;2024-02-14T03:12:42;3.50;;;2.90;;
2173;SDS011;1093;51.424;11.764;2024-02-14T03:15:12;4.30;;;3.23;;
2173;SDS011;1093;51.424;11.764;2024-02-14T03:17:40;5.23;;;3.23;;
2173;SDS011;1093;51.424;11.764;2024-02-14T03:20:07;4.80;;;2.70;;
2173;SDS011;1093;51.424;11.764;2024-02-14T03:22:37;8.20;;;2.70;;
2173;SDS011;1093;51.424;11.764;2024-02-14T03:25:08;3.60;;;2.80;;
2173;SDS011;1093;51.424;11.764;2024-02-14T03:27:36;6.13;;;3.90;;
2173;SDS011;1093;51.424;11.764;2024-02-14T03:30:05;3.73;;;2.73;;
2173;SDS011;1093;51.424;11.764;2024-02-14T03:32:33;4.13;;;2.83;;
2173;SDS011;1093;51.424;11.764;2024-02-14T03:35:00;5.20;;;2.37;;
2173;SDS011;1093;51.424;11.764;2024-02-14T03:37:26;2.67;;;2.47;;
2173;SDS011;1093;51.424;11.764;2024-02-14T03:39:53;5.60;;;2.77;;
2173;SDS011;1093;51.424;11.764;2024-02-14T03:42:20;4.83;;;2.40;;
2173;SDS011;1093;51.424;11.764;2024-02-14T03:44:46;5.40;;;2.77;;
2173;SDS011;1093;51.424;11.764;2024-02-14T03:47:14;2.37;;;2.17;;
2173;SDS011;1093;51.424;11.764;2024-02-14T03:49:41;4.07;;;2.33;;
2173;SDS011;1093;51.424;11.764;2024-02-14T03:52:08;3.13;;;2.37;;
2173;SDS011;1093;51.424;11.764;2024-02-14T03:54:36;3.87;;;2.30;;
2173;SDS011;1093;51.424;11.764;2024-02-14T03:57:03;7.73;;;3.10;;
2173;SDS011;1093;51.424;11.764;2024-02-14T03:59:31;2.57;;;2.30;;
2173;SDS011;1093;51.424;11.764;2024-02-14T04:02:00;3.80;;;1.90;;
2173;SDS011;1093;51.424;11.764;2024-02-14T04:04:28;3.50;;;2.20;;
2173;SDS011;1093;51.424;11.764;2024-02-14T04:06:55;2.40;;;1.83;;
2173;SDS011;1093;51.424;11.764;2024-02-14T04:09:23;2.97;;;2.50;;
2173;SDS011;1093;51.424;11.764;2024-02-14T04:11:50;2.80;;;2.03;;
2173;SDS011;1093;51.424;11.764;2024-02-14T04:14:16;2.80;;;2.50;;
2173;SDS011;1093;51.424;11.764;2024-02-14T04:16:43;3.10;;;2.00;;
2173;SDS011;1093;51.424;11.764;2024-02-14T04:19:11;2.80;;;2.60;;
2173;SDS011;1093;51.424;11.764;2024-02-14T04:21:39;2.60;;;1.60;;
2173;SDS011;1093;51.424;11.764;2024-02-14T04:24:06;6.20;;;2.30;;
2173;SDS011;1093;51.424;11.764;2024-02-14T04:26:33;2.97;;;1.93;;
2173;SDS011;1093;51.424;11.764;2024-02-14T04:29:00;5.83;;;3.07;;
2173;SDS011;1093;51.424;11.764;2024-02-14T04:31:27;3.73;;;2.40;;
2173;SDS011;1093;51.424;11.764;2024-02-14T04:33:54;3.20;;;1.93;;
2173;SDS011;1093;51.424;11.764;2024-02-14T04:36:21;2.80;;;2.60;;
2173;SDS011;1093;51.424;11.764;2024-02-14T04:38:51;2.07;;;1.90;;
2173;SDS011;1093;51.424;11.764;2024-02-14T04:41:18;3.77;;;2.53;;
2173;SDS011;1093;51.424;11.764;2024-02-14T04:43:44;4.60;;;2.77;;
2173;SDS011;1093;51.424;11.764;2024-02-14T04:46:12;3.70;;;3.17;;
2173;SDS011;1093;51.424;11.764;2024-02-14T04:48:39;6.10;;;2.57;;
2173;SDS011;1093;51.424;11.764;2024-02-14T04:51:05;2.67;;;2.20;;
2173;SDS011;1093;51.424;11.764;2024-02-14T04:53:32;4.60;;;2.63;;
2173;SDS011;1093;51.424;11.764;2024-02-14T04:56:00;3.77;;;2.77;;
2173;SDS011;1093;51.424;11.764;2024-02-14T04:58:27;3.23;;;2.50;;
2173;SDS011;1093;51.424;11.764;2024-02-14T05:00:54;5.60;;;2.10;;
2173;SDS011;1093;51.424;11.764;2024-02-14T05:03:21;2.93;;;2.63;;
2173;SDS011;1093;51.424;11.764;2024-02-14T05:05:49;3.90;;;2.80;;
2173;SDS011;1093;51.424;11.764;2024-02-14T05:08:16;8.07;;;3.03;;
2173;SDS011;1093;51.424;11.764;2024-02-14T05:10:42;3.60;;;2.40;;
2173;SDS011;1093;51.424;11.764;2024-02-14T05:13:12;4.63;;;2.93;;
2173;SDS011;1093;51.424;11.764;2024-02-14T05:15:40;3.97;;;2.90;;
2173;SDS011;1093;51.424;11.764;2024-02-14T05:18:07;2.33;;;1.87;;
2173;SDS011;1093;51.424;11.764;2024-02-14T05:20:34;8.40;;;3.30;;
2173;SDS011;1093;51.424;11.764;2024-02-14T05:23:03;8.20;;;2.33;;
2173;SDS011;1093;51.424;11.764;2024-02-14T05:25:30;3.53;;;1.97;;
2173;SDS011;1093;51.424;11.764;2024-02-14T05:27:57;5.63;;;3.40;;
2173;SDS011;1093;51.424;11.764;2024-02-14T05:30:26;2.50;;;2.30;;
2173;SDS011;1093;51.424;11.764;2024-02-14T05:32:53;3.53;;;2.40;;
2173;SDS011;1093;51.424;11.764;2024-02-14T05:35:20;3.33;;;3.00;;
2173;SDS011;1093;51.424;11.764;2024-02-14T05:37:48;2.97;;;2.70;;
2173;SDS011;1093;51.424;11.764;2024-02-14T05:40:15;2.50;;;2.30;;
2173;SDS011;1093;51.424;11.764;2024-02-14T05:42:42;5.10;;;2.70;;
2173;SDS011;1093;51.424;11.764;2024-02-14T05:45:09;4.20;;;2.63;;
2173;SDS011;1093;51.424;11.764;2024-02-14T05:47:37;3.73;;;2.87;;
2173;SDS011;1093;51.424;11.764;2024-02-14T05:50:05;3.27;;;2.97;;
2173;SDS011;1093;51.424;11.764;2024-02-14T05:52:33;7.23;;;3.00;;
2173;SDS011;1093;51.424;11.764;2024-02-14T05:55:00;5.00;;;2.70;;
2173;SDS011;1093;51.424;11.764;2024-02-14T05:57:28;7.80;;;3.00;;
2173;SDS011;1093;51.424;11.764;2024-02-14T05:59:55;5.17;;;2.93;;
2173;SDS011;1093;51.424;11.764;2024-02-14T06:02:22;3.13;;;2.83;;
2173;SDS011;1093;51.424;11.764;2024-02-14T06:04:50;7.33;;;2.67;;
2173;SDS011;1093;51.424;11.764;2024-02-14T06:07:16;4.23;;;3.20;;
2173;SDS011;1093;51.424;11.764;2024-02-14T06:09:43;3.43;;;3.13;;
2173;SDS011;1093;51.424;11.764;2024-02-14T06:12:10;3.60;;;2.77;;
2173;SDS011;1093;51.424;11.764;2024-02-14T06:14:37;4.00;;;2.37;;
2173;SDS011;1093;51.424;11.764;2024-02-14T06:17:04;4.97;;;3.27;;
2173;SDS011;1093;51.424;11.764;2024-02-14T06:19:31;2.90;;;2.40;;
2173;SDS011;1093;51.424;11.764;2024-02-14T06:21:59;5.00;;;3.27;;
2173;SDS011;1093;51.424;11.764;2024-02-14T06:24:26;2.83;;;2.17;;
2173;SDS011;1093;51.424;11.764;2024-02-14T06:26:53;3.23;;;2.93;;
2173;SDS011;1093;51.424;11.764;2024-02-14T06:29:19;4.23;;;2.37;;
2173;SDS011;1093;51.424;11.764;2024-02-14T06:31:46;2.97;;;2.43;;
2173;SDS011;1093;51.424;11.764;2024-02-14T06:34:13;6.40;;;2.63;;
2173;SDS011;1093;51.424;11.764;2024-02-14T06:36:40;2.23;;;2.13;;
2173;SDS011;1093;51.424;11.764;2024-02-14T06:39:09;4.50;;;2.37;;
2173;SDS011;1093;51.424;11.764;2024-02-14T06:41:36;6.27;;;2.97;;
2173;SDS011;1093;51.424;11.764;2024-02-14T06:44:03;4.63;;;2.80;;
2173;SDS011;1093;51.424;11.764;2024-02-14T06:46:30;3.13;;;2.20;;
2173;SDS011;1093;51.424;11.764;2024-02-14T06:48:56;4.60;;;2.30;;
2173;SDS011;1093;51.424;11.764;2024-02-14T06:51:23;3.90;;;2.87;;
2173;SDS011;1093;51.424;11.764;2024-02-14T06:53:50;3.97;;;2.40;;
2173;SDS011;1093;51.424;11.764;2024-02-14T06:56:18;5.30;;;3.27;;
2173;SDS011;1093;51.424;11.764;2024-02-14T06:58:44;3.50;;;3.17;;
2173;SDS011;1093;51.424;11.764;2024-02-14T07:01:11;5.73;;;2.23;;
2173;SDS011;1093;51.424;11.764;2024-02-14T07:03:40;5.80;;;2.60;;
2173;SDS011;1093;51.424;11.764;2024-02-14T07:06:07;2.60;;;2.13;;
2173;SDS011;1093;51.424;11.764;2024-02-14T07:08:33;4.17;;;2.30;;
2173;SDS011;1093;51.424;11.764;2024-02-14T07:11:00;2.40;;;2.20;;
2173;SDS011;1093;51.424;11.764;2024-02-14T07:13:28;5.17;;;2.80;;
2173;SDS011;1093;51.424;11.764;2024-02-14T07:15:54;5.23;;;2.30;;
2173;SDS011;1093;51.424;11.764;2024-02-14T07:18:21;4.50;;;2.40;;
2173;SDS011;1093;51.424;11.764;2024-02-14T07:20:47;2.80;;;2.60;;
2173;SDS011;1093;51.424;11.764;2024-02-14T07:23:14;4.40;;;2.47;;
2173;SDS011;1093;51.424;11.764;2024-02-14T07:26:08;5.03;;;3.00;;
2173;SDS011;1093;51.424;11.764;2024-02-14T07:28:36;2.57;;;2.37;;
2173;SDS011;1093;51.424;11.764;2024-02-14T07:31:03;5.03;;;2.40;;
2173;SDS011;1093;51.424;11.764;2024-02-14T07:33:30;3.33;;;2.57;;
2173;SDS011;1093;51.424;11.764;2024-02-14T07:35:57;5.13;;;3.13;;
2173;SDS011;1093;51.424;11.764;2024-02-14T07:38:24;3.37;;;2.57;;
2173;SDS011;1093;51.424;11.764;2024-02-14T07:40:51;6.63;;;3.00;;
2173;SDS011;1093;51.424;11.764;2024-02-14T07:43:18;3.43;;;2.30;;
2173;SDS011;1093;51.424;11.764;2024-02-14T07:45:46;10.03;;;2.90;;
2173;SDS011;1093;51.424;11.764;2024-02-14T07:48:41;3.70;;;2.70;;
2173;SDS011;1093;51.424;11.764;2024-02-14T07:51:07;5.47;;;2.23;;
2173;SDS011;1093;51.424;11.764;2024-02-14T07:53:34;3.20;;;2.70;;
2173;SDS011;1093;51.424;11.764;2024-02-14T07:56:01;5.60;;;2.80;;
2173;SDS011;1093;51.424;11.764;2024-02-14T07:58:27;6.23;;;2.80;;
2173;SDS011;1093;51.424;11.764;2024-02-14T08:00:55;2.90;;;2.23;;
2173;SDS011;1093;51.424;11.764;2024-02-14T08:03:22;3.30;;;3.00;;
2173;SDS011;1093;51.424;11.764;2024-02-14T08:05:49;4.60;;;2.67;;
2173;SDS011;1093;51.424;11.764;2024-02-14T08:08:17;7.03;;;2.77;;
2173;SDS011;1093;51.424;11.764;2024-02-14T08:10:43;7.70;;;3.00;;
2173;SDS011;1093;51.424;11.764;2024-02-14T08:13:10;3.20;;;2.90;;
2173;SDS011;1093;51.424;11.764;2024-02-14T08:15:40;3.40;;;2.87;;
2173;SDS011;1093;51.424;11.764;2024-02-14T08:18:08;5.53;;;3.10;;
2173;SDS011;1093;51.424;11.764;2024-02-14T08:20:35;4.93;;;2.97;;
2173;SDS011;1093;51.424;11.764;2024-02-14T08:23:02;4.10;;;3.33;;
2173;SDS011;1093;51.424;11.764;2024-02-14T08:25:29;3.13;;;2.37;;
2173;SDS011;1093;51.424;11.764;2024-02-14T08:27:56;7.23;;;3.60;;
2173;SDS011;1093;51.424;11.764;2024-02-14T08:30:22;10.13;;;3.23;;
2173;SDS011;1093;51.424;11.764;2024-02-14T08:32:50;3.30;;;2.13;;
2173;SDS011;1093;51.424;11.764;2024-02-14T08:35:20;2.63;;;2.43;;
2173;SDS011;1093;51.424;11.764;2024-02-14T08:37:50;4.83;;;3.03;;
2173;SDS011;1093;51.424;11.764;2024-02-14T08:40:19;3.10;;;2.90;;
2173;SDS011;1093;51.424;11.764;2024-02-14T08:42:46;3.93;;;3.00;;
2173;SDS011;1093;51.424;11.764;2024-02-14T08:45:16;3.03;;;2.77;;
2173;SDS011;1093;51.424;11.764;2024-02-14T08:47:46;6.23;;;2.90;;
2173;SDS011;1093;51.424;11.764;2024-02-14T08:50:15;3.53;;;2.60;;
2173;SDS011;1093;51.424;11.764;2024-02-14T08:52:43;4.20;;;2.60;;
2173;SDS011;1093;51.424;11.764;2024-02-14T08:55:11;3.10;;;2.50;;
2173;SDS011;1093;51.424;11.764;2024-02-14T08:57:42;9.57;;;3.13;;
2173;SDS011;1093;51.424;11.764;2024-02-14T09:00:10;4.57;;;3.03;;
2173;SDS011;1093;51.424;11.764;2024-02-14T09:02:40;5.40;;;2.50;;
2173;SDS011;1093;51.424;11.764;2024-02-14T09:05:07;2.67;;;2.47;;
2173;SDS011;1093;51.424;11.764;2024-02-14T09:07:35;3.13;;;2.93;;
2173;SDS011;1093;51.424;11.764;2024-02-14T09:10:04;3.37;;;2.90;;
2173;SDS011;1093;51.424;11.764;2024-02-14T09:12:32;3.77;;;2.87;;
2173;SDS011;1093;51.424;11.764;2024-02-14T09:14:58;5.90;;;2.77;;
2173;SDS011;1093;51.424;11.764;2024-02-14T09:17:25;4.53;;;3.10;;
2173;SDS011;1093;51.424;11.764;2024-02-14T09:19:52;4.70;;;3.10;;
2173;SDS011;1093;51.424;11.764;2024-02-14T09:22:19;5.77;;;3.30;;
2173;SDS011;1093;51.424;11.764;2024-02-14T09:24:46;4.43;;;3.50;;
2173;SDS011;1093;51.424;11.764;2024-02-14T09:27:14;5.60;;;3.80;;
2173;SDS011;1093;51.424;11.764;2024-02-14T09:29:41;4.13;;;3.53;;
2173;SDS011;1093;51.424;11.764;2024-02-14T09:32:08;4.23;;;3.50;;
2173;SDS011;1093;51.424;11.764;2024-02-14T09:34:35;5.83;;;3.37;;
2173;SDS011;1093;51.424;11.764;2024-02-14T09:37:02;3.93;;;3.23;;
2173;SDS011;1093;51.424;11.764;2024-02-14T09:39:31;9.50;;;3.60;;
2173;SDS011;1093;51.424;11.764;2024-02-14T09:41:58;3.23;;;2.93;;
2173;SDS011;1093;51.424;11.764;2024-02-14T09:44:27;3.97;;;2.87;;
2173;SDS011;1093;51.424;11.764;2024-02-14T09:46:54;4.80;;;3.70;;
2173;SDS011;1093;51.424;11.764;2024-02-14T09:49:22;3.23;;;2.90;;
2173;SDS011;1093;51.424;11.764;2024-02-14T09:51:49;6.23;;;3.50;;
2173;SDS011;1093;51.424;11.764;2024-02-14T09:54:17;3.57;;;3.27;;
2173;SDS011;1093;51.424;11.764;2024-02-14T09:56:45;10.63;;;3.60;;
2173;SDS011;1093;51.424;11.764;2024-02-14T09:59:15;3.40;;;3.10;;
2173;SDS011;1093;51.424;11.764;2024-02-14T10:01:44;3.73;;;2.87;;
2173;SDS011;1093;51.424;11.764;2024-02-14T10:04:13;3.50;;;3.20;;
2173;SDS011;1093;51.424;11.764;2024-02-14T10:06:39;3.37;;;3.07;;
2173;SDS011;1093;51.424;11.764;2024-02-14T10:09:06;6.80;;;3.63;;
2173;SDS011;1093;51.424;11.764;2024-02-14T10:11:35;7.60;;;3.00;;
2173;SDS011;1093;51.424;11.764;2024-02-14T10:14:02;4.07;;;3.67;;
2173;SDS011;1093;51.424;11.764;2024-02-14T10:16:34;4.13;;;3.07;;
2173;SDS011;1093;51.424;11.764;2024-02-14T10:19:02;7.30;;;3.70;;
2173;SDS011;1093;51.424;11.764;2024-02-14T10:21:32;3.83;;;3.43;;
2173;SDS011;1093;51.424;11.764;2024-02-14T10:26:56;3.17;;;2.90;;
2173;SDS011;1093;51.424;11.764;2024-02-14T10:29:23;6.67;;;3.60;;
2173;SDS011;1093;51.424;11.764;2024-02-14T10:31:50;4.27;;;3.73;;
2173;SDS011;1093;51.424;11.764;2024-02-14T10:34:19;5.23;;;3.50;;
2173;SDS011;1093;51.424;11.764;2024-02-14T10:36:51;3.77;;;2.80;;
2173;SDS011;1093;51.424;11.764;2024-02-14T10:39:19;3.67;;;3.37;;
2173;SDS011;1093;51.424;11.764;2024-02-14T10:41:47;8.73;;;4.00;;
2173;SDS011;1093;51.424;11.764;2024-02-14T10:44:15;3.60;;;3.30;;
2173;SDS011;1093;51.424;11.764;2024-02-14T10:46:42;6.07;;;3.83;;
2173;SDS011;1093;51.424;11.764;2024-02-14T10:49:12;5.83;;;3.70;;
2173;SDS011;1093;51.424;11.764;2024-02-14T10:51:43;4.47;;;3.47;;
2173;SDS011;1093;51.424;11.764;2024-02-14T10:54:14;9.47;;;4.00;;
2173;SDS011;1093;51.424;11.764;2024-02-14T10:56:42;6.00;;;4.13;;
2173;SDS011;1093;51.424;11.764;2024-02-14T10:59:15;5.80;;;3.60;;
2173;SDS011;1093;51.424;11.764;2024-02-14T11:01:44;3.77;;;3.40;;
2173;SDS011;1093;51.424;11.764;2024-02-14T11:04:15;4.27;;;2.73;;
2173;SDS011;1093;51.424;11.764;2024-02-14T11:06:47;3.53;;;3.20;;
2173;SDS011;1093;51.424;11.764;2024-02-14T11:09:18;4.63;;;3.70;;
2173;SDS011;1093;51.424;11.764;2024-02-14T11:11:44;5.03;;;3.70;;
2173;SDS011;1093;51.424;11.764;2024-02-14T11:14:14;6.30;;;3.70;;
2173;SDS011;1093;51.424;11.764;2024-02-14T11:16:44;5.50;;;3.20;;
2173;SDS011;1093;51.424;11.764;2024-02-14T11:29:16;3.70;;;3.33;;
2173;SDS011;1093;51.424;11.764;2024-02-14T11:32:05;3.47;;;3.03;;
2173;SDS011;1093;51.424;11.764;2024-02-14T11:34:40;3.60;;;3.27;;
2173;SDS011;1093;51.424;11.764;2024-02-14T11:37:15;3.27;;;2.80;;
2173;SDS011;1093;51.424;11.764;2024-02-14T11:39:48;2.93;;;2.73;;
2173;SDS011;1093;51.424;11.764;2024-02-14T11:42:35;3.67;;;3.10;;
2173;SDS011;1093;51.424;11.764;2024-02-14T11:51:16;4.43;;;2.90;;
2173;SDS011;1093;51.424;11.764;2024-02-14T12:00:53;2.87;;;2.53;;
2173;SDS011;1093;51.424;11.764;2024-02-14T12:03:21;3.47;;;2.83;;
2173;SDS011;1093;51.424;11.764;2024-02-14T12:05:49;2.90;;;2.37;;
2173;SDS011;1093;51.424;11.764;2024-02-14T12:08:17;3.27;;;2.73;;
2173;SDS011;1093;51.424;11.764;2024-02-14T12:10:44;3.23;;;2.93;;
2173;SDS011;1093;51.424;11.764;2024-02-14T12:13:14;5.03;;;2.97;;
2173;SDS011;1093;51.424;11.764;2024-02-14T12:15:44;2.57;;;2.37;;
2173;SDS011;1093;51.424;11.764;2024-02-14T12:18:13;4.93;;;3.10;;
2173;SDS011;1093;51.424;11.764;2024-02-14T12:20:41;5.50;;;2.87;;
2173;SDS011;1093;51.424;11.764;2024-02-14T12:23:13;9.70;;;3.07;;
2173;SDS011;1093;51.424;11.764;2024-02-14T12:25:42;3.33;;;2.67;;
2173;SDS011;1093;51.424;11.764;2024-02-14T12:28:12;4.50;;;2.40;;
2173;SDS011;1093;51.424;11.764;2024-02-14T12:30:42;2.87;;;2.67;;
2173;SDS011;1093;51.424;11.764;2024-02-14T12:42:44;5.63;;;2.80;;
2173;SDS011;1093;51.424;11.764;2024-02-14T12:45:15;5.10;;;2.67;;
2173;SDS011;1093;51.424;11.764;2024-02-14T12:47:48;2.47;;;1.90;;
2173;SDS011;1093;51.424;11.764;2024-02-14T12:50:15;2.53;;;2.30;;
2173;SDS011;1093;51.424;11.764;2024-02-14T13:02:06;3.80;;;3.03;;
2173;SDS011;1093;51.424;11.764;2024-02-14T13:04:42;3.70;;;2.57;;
2173;SDS011;1093;51.424;11.764;2024-02-14T13:07:19;4.80;;;2.20;;
2173;SDS011;1093;51.424;11.764;2024-02-14T13:09:49;3.80;;;2.20;;
2173;SDS011;1093;51.424;11.764;2024-02-14T13:12:34;4.37;;;3.50;;
2173;SDS011;1093;51.424;11.764;2024-02-14T13:15:15;3.13;;;2.43;;
2173;SDS011;1093;51.424;11.764;2024-02-14T13:18:22;3.40;;;3.07;;
2173;SDS011;1093;51.424;11.764;2024-02-14T13:20:52;6.50;;;3.13;;
2173;SDS011;1093;51.424;11.764;2024-02-14T13:23:32;2.70;;;2.37;;
2173;SDS011;1093;51.424;11.764;2024-02-14T13:29:38;10.80;;;2.37;;
2173;SDS011;1093;51.424;11.764;2024-02-14T13:32:04;3.70;;;3.27;;
2173;SDS011;1093;51.424;11.764;2024-02-14T13:34:40;2.70;;;2.50;;
2173;SDS011;1093;51.424;11.764;2024-02-14T13:40:45;3.40;;;3.10;;
2173;SDS011;1093;51.424;11.764;2024-02-14T13:53:00;3.17;;;2.83;;
2173;SDS011;1093;51.424;11.764;2024-02-14T13:55:29;3.73;;;2.80;;
2173;SDS011;1093;51.424;11.764;2024-02-14T13:58:13;4.33;;;3.33;;
2173;SDS011;1093;51.424;11.764;2024-02-14T14:19:55;3.20;;;2.77;;
2173;SDS011;1093;51.424;11.764;2024-02-14T14:25:48;3.53;;;2.67;;
2173;SDS011;1093;51.424;11.764;2024-02-14T14:41:42;3.17;;;2.87;;
2173;SDS011;1093;51.424;11.764;2024-02-14T14:44:31;2.83;;;2.40;;
2173;SDS011;1093;51.424;11.764;2024-02-14T14:50:35;5.83;;;2.83;;
2173;SDS011;1093;51.424;11.764;2024-02-14T14:53:12;3.00;;;2.80;;
2173;SDS011;1093;51.424;11.764;2024-02-14T14:55:56;4.10;;;3.70;;
2173;SDS011;1093;51.424;11.764;2024-02-14T15:01:37;2.90;;;2.63;;
2173;SDS011;1093;51.424;11.764;2024-02-14T15:04:13;2.47;;;2.27;;
2173;SDS011;1093;51.424;11.764;2024-02-14T15:06:51;3.10;;;2.90;;
2173;SDS011;1093;51.424;11.764;2024-02-14T15:09:27;4.47;;;2.37;;
2173;SDS011;1093;51.424;11.764;2024-02-14T15:11:56;2.77;;;2.57;;
2173;SDS011;1093;51.424;11.764;2024-02-14T15:14:32;5.60;;;2.20;;
2173;SDS011;1093;51.424;11.764;2024-02-14T15:19:56;2.37;;;2.17;;
2173;SDS011;1093;51.424;11.764;2024-02-14T15:22:41;3.63;;;2.70;;
2173;SDS011;1093;51.424;11.764;2024-02-14T15:25:29;4.50;;;2.60;;
2173;SDS011;1093;51.424;11.764;2024-02-14T15:31:02;2.57;;;2.37;;
2173;SDS011;1093;51.424;11.764;2024-02-14T15:31:49;4.50;;;2.37;;
2173;SDS011;1093;51.424;11.764;2024-02-14T15:34:34;4.50;;;2.40;;
2173;SDS011;1093;51.424;11.764;2024-02-14T15:43:30;2.63;;;1.90;;
2173;SDS011;1093;51.424;11.764;2024-02-14T15:49:30;3.47;;;2.00;;
2173;SDS011;1093;51.424;11.764;2024-02-14T16:07:52;3.57;;;2.53;;
2173;SDS011;1093;51.424;11.764;2024-02-14T16:10:19;5.03;;;3.10;;
2173;SDS011;1093;51.424;11.764;2024-02-14T16:19:46;3.43;;;2.70;;
2173;SDS011;1093;51.424;11.764;2024-02-14T16:25:38;6.07;;;3.10;;
2173;SDS011;1093;51.424;11.764;2024-02-14T16:28:50;5.00;;;2.60;;
2173;SDS011;1093;51.424;11.764;2024-02-14T16:31:17;3.80;;;2.60;;
2173;SDS011;1093;51.424;11.764;2024-02-14T16:33:54;2.70;;;2.43;;
2173;SDS011;1093;51.424;11.764;2024-02-14T16:39:43;4.33;;;3.07;;
2173;SDS011;1093;51.424;11.764;2024-02-14T16:45:52;5.67;;;2.60;;
2173;SDS011;1093;51.424;11.764;2024-02-14T16:48:19;3.50;;;3.17;;
2173;SDS011;1093;51.424;11.764;2024-02-14T16:50:46;2.43;;;2.23;;
2173;SDS011;1093;51.424;11.764;2024-02-14T16:53:13;3.40;;;2.47;;
2173;SDS011;1093;51.424;11.764;2024-02-14T16:55:40;2.63;;;2.40;;
2173;SDS011;1093;51.424;11.764;2024-02-14T16:58:07;5.10;;;2.07;;
2173;SDS011;1093;51.424;11.764;2024-02-14T17:00:35;5.23;;;2.53;;
2173;SDS011;1093;51.424;11.764;2024-02-14T17:03:02;3.20;;;2.90;;
2173;SDS011;1093;51.424;11.764;2024-02-14T17:05:29;3.53;;;2.50;;
2173;SDS011;1093;51.424;11.764;2024-02-14T17:07:55;2.50;;;2.30;;
2173;SDS011;1093;51.424;11.764;2024-02-14T17:10:22;2.57;;;2.37;;
2173;SDS011;1093;51.424;11.764;2024-02-14T17:12:49;2.80;;;2.60;;
2173;SDS011;1093;51.424;11.764;2024-02-14T17:15:16;2.53;;;2.30;;
2173;SDS011;1093;51.424;11.764;2024-02-14T17:17:44;3.97;;;2.73;;
2173;SDS011;1093;51.424;11.764;2024-02-14T17:20:11;2.20;;;2.00;;
2173;SDS011;1093;51.424;11.764;2024-02-14T17:22:37;2.70;;;2.50;;
2173;SDS011;1093;51.424;11.764;2024-02-14T17:25:04;2.20;;;1.90;;
2173;SDS011;1093;51.424;11.764;2024-02-14T17:27:34;2.40;;;2.10;;
2173;SDS011;1093;51.424;11.764;2024-02-14T17:30:01;2.60;;;2.30;;
2173;SDS011;1093;51.424;11.764;2024-02-14T17:32:33;2.20;;;2.10;;
2173;SDS011;1093;51.424;11.764;2024-02-14T17:35:01;5.37;;;2.20;;
2173;SDS011;1093;51.424;11.764;2024-02-14T17:37:28;2.77;;;2.30;;
2173;SDS011;1093;51.424;11.764;2024-02-14T17:39:56;2.27;;;2.07;;
2173;SDS011;1093;51.424;11.764;2024-02-14T17:42:23;1.93;;;1.80;;
2173;SDS011;1093;51.424;11.764;2024-02-14T17:44:49;3.67;;;2.23;;
2173;SDS011;1093;51.424;11.764;2024-02-14T17:47:16;3.73;;;2.20;;
2173;SDS011;1093;51.424;11.764;2024-02-14T17:49:43;3.47;;;2.97;;